sensor_id;sensor_type;location;lat;lon;timestamp;temperature;humidity
19906;DHT22;10115;50.906;4.438;2023-12-28T00:00:28;10.50;99.90
19906;DHT22;10115;50.906;4.438;2023-12-28T00:02:53;10.40;99.90
19906;DHT22;10115;50.906;4.438;2023-12-28T00:05:19;10.40;99.90
19906;DHT22;10115;50.906;4.438;2023-12-28T00:07:44;10.40;99.90
19906;DHT22;10115;50.906;4.438;2023-12-28T00:10:10;10.40;99.90
19906;DHT22;10115;50.906;4.438;2023-12-28T00:12:36;10.40;99.90
19906;DHT22;10115;50.906;4.438;2023-12-28T00:15:02;10.40;99.90
19906;DHT22;10115;50.906;4.438;2023-12-28T00:17:28;10.50;99.90
19906;DHT22;10115;50.906;4.438;2023-12-28T00:19:53;10.50;99.90
19906;DHT22;10115;50.906;4.438;2023-12-28T00:22:20;10.50;99.90
19906;DHT22;10115;50.906;4.438;2023-12-28T00:24:45;10.50;99.90
19906;DHT22;10115;50.906;4.438;2023-12-28T00:27:11;10.50;99.90
19906;DHT22;10115;50.906;4.438;2023-12-28T00:29:36;10.50;99.90
19906;DHT22;10115;50.906;4.438;2023-12-28T00:32:07;10.50;99.90
19906;DHT22;10115;50.906;4.438;2023-12-28T00:34:32;10.50;99.90
19906;DHT22;10115;50.906;4.438;2023-12-28T00:36:58;10.60;99.90
19906;DHT22;10115;50.906;4.438;2023-12-28T00:39:24;10.60;99.90
19906;DHT22;10115;50.906;4.438;2023-12-28T00:41:49;10.60;99.90
19906;DHT22;10115;50.906;4.438;2023-12-28T00:44:15;10.70;99.90
19906;DHT22;10115;50.906;4.438;2023-12-28T00:46:41;10.70;99.90
19906;DHT22;10115;50.906;4.438;2023-12-28T00:49:06;10.70;99.90
19906;DHT22;10115;50.906;4.438;2023-12-28T00:51:33;10.60;99.90
19906;DHT22;10115;50.906;4.438;2023-12-28T00:53:59;10.60;99.90
19906;DHT22;10115;50.906;4.438;2023-12-28T00:56:25;10.60;99.90
19906;DHT22;10115;50.906;4.438;2023-12-28T00:58:50;10.60;99.90
19906;DHT22;10115;50.906;4.438;2023-12-28T01:01:16;10.60;99.90
19906;DHT22;10115;50.906;4.438;2023-12-28T01:03:42;10.60;99.90
19906;DHT22;10115;50.906;4.438;2023-12-28T01:06:08;10.60;99.90
19906;DHT22;10115;50.906;4.438;2023-12-28T01:08:34;10.60;99.90
19906;DHT22;10115;50.906;4.438;2023-12-28T01:11:00;10.60;99.90
19906;DHT22;10115;50.906;4.438;2023-12-28T01:13:27;10.60;99.90
19906;DHT22;10115;50.906;4.438;2023-12-28T01:15:52;10.60;99.90
19906;DHT22;10115;50.906;4.438;2023-12-28T01:18:18;10.60;99.90
19906;DHT22;10115;50.906;4.438;2023-12-28T01:20:44;10.60;99.90
19906;DHT22;10115;50.906;4.438;2023-12-28T01:23:10;10.60;99.90
19906;DHT22;10115;50.906;4.438;2023-12-28T01:25:35;10.60;99.90
19906;DHT22;10115;50.906;4.438;2023-12-28T01:28:01;10.50;99.90
19906;DHT22;10115;50.906;4.438;2023-12-28T01:30:27;10.60;99.90
19906;DHT22;10115;50.906;4.438;2023-12-28T01:32:53;10.60;99.90
19906;DHT22;10115;50.906;4.438;2023-12-28T01:35:18;10.60;99.90
19906;DHT22;10115;50.906;4.438;2023-12-28T01:37:44;10.60;99.90
19906;DHT22;10115;50.906;4.438;2023-12-28T01:40:10;10.60;99.90
19906;DHT22;10115;50.906;4.438;2023-12-28T01:42:35;10.60;99.90
19906;DHT22;10115;50.906;4.438;2023-12-28T01:45:01;10.60;99.90
19906;DHT22;10115;50.906;4.438;2023-12-28T01:47:29;10.70;99.90
19906;DHT22;10115;50.906;4.438;2023-12-28T01:49:55;10.70;99.90
19906;DHT22;10115;50.906;4.438;2023-12-28T01:52:21;10.70;99.90
19906;DHT22;10115;50.906;4.438;2023-12-28T01:54:47;10.70;99.90
19906;DHT22;10115;50.906;4.438;2023-12-28T01:57:14;10.70;99.90
19906;DHT22;10115;50.906;4.438;2023-12-28T01:59:41;10.80;99.90
19906;DHT22;10115;50.906;4.438;2023-12-28T02:02:07;10.70;99.90
19906;DHT22;10115;50.906;4.438;2023-12-28T02:04:33;10.70;99.90
19906;DHT22;10115;50.906;4.438;2023-12-28T02:07:00;10.70;99.90
19906;DHT22;10115;50.906;4.438;2023-12-28T02:09:26;10.80;99.90
19906;DHT22;10115;50.906;4.438;2023-12-28T02:11:53;10.80;99.90
19906;DHT22;10115;50.906;4.438;2023-12-28T02:14:20;10.80;99.90
19906;DHT22;10115;50.906;4.438;2023-12-28T02:17:08;10.70;99.90
19906;DHT22;10115;50.906;4.438;2023-12-28T02:19:51;10.70;99.90
19906;DHT22;10115;50.906;4.438;2023-12-28T02:22:18;10.70;99.90
19906;DHT22;10115;50.906;4.438;2023-12-28T02:25:12;10.70;99.90
19906;DHT22;10115;50.906;4.438;2023-12-28T02:27:44;10.80;99.90
19906;DHT22;10115;50.906;4.438;2023-12-28T02:30:12;10.80;99.90
19906;DHT22;10115;50.906;4.438;2023-12-28T02:35:19;10.80;99.90
19906;DHT22;10115;50.906;4.438;2023-12-28T02:37:49;10.90;99.90
19906;DHT22;10115;50.906;4.438;2023-12-28T02:40:16;10.90;99.90
19906;DHT22;10115;50.906;4.438;2023-12-28T02:42:42;10.90;99.90
19906;DHT22;10115;50.906;4.438;2023-12-28T02:45:09;10.90;99.90
19906;DHT22;10115;50.906;4.438;2023-12-28T02:47:34;10.90;99.90
19906;DHT22;10115;50.906;4.438;2023-12-28T02:50:00;10.90;99.90
19906;DHT22;10115;50.906;4.438;2023-12-28T02:52:26;11.00;99.90
19906;DHT22;10115;50.906;4.438;2023-12-28T02:54:51;11.00;99.90
19906;DHT22;10115;50.906;4.438;2023-12-28T02:57:17;11.00;99.90
19906;DHT22;10115;50.906;4.438;2023-12-28T02:59:46;11.00;99.90
19906;DHT22;10115;50.906;4.438;2023-12-28T03:02:12;11.00;99.90
19906;DHT22;10115;50.906;4.438;2023-12-28T03:04:38;11.00;99.90
19906;DHT22;10115;50.906;4.438;2023-12-28T03:07:05;11.10;99.90
19906;DHT22;10115;50.906;4.438;2023-12-28T03:09:30;11.00;99.90
19906;DHT22;10115;50.906;4.438;2023-12-28T03:11:56;11.00;99.90
19906;DHT22;10115;50.906;4.438;2023-12-28T03:14:22;10.90;99.90
19906;DHT22;10115;50.906;4.438;2023-12-28T03:16:47;10.90;99.90
19906;DHT22;10115;50.906;4.438;2023-12-28T03:19:13;11.00;99.90
19906;DHT22;10115;50.906;4.438;2023-12-28T03:21:40;11.00;99.90
19906;DHT22;10115;50.906;4.438;2023-12-28T03:24:06;10.90;99.90
19906;DHT22;10115;50.906;4.438;2023-12-28T03:26:31;11.00;99.90
19906;DHT22;10115;50.906;4.438;2023-12-28T03:28:57;11.00;99.90
19906;DHT22;10115;50.906;4.438;2023-12-28T03:31:22;11.00;99.90
19906;DHT22;10115;50.906;4.438;2023-12-28T03:33:48;11.00;99.90
19906;DHT22;10115;50.906;4.438;2023-12-28T03:36:18;11.00;99.90
19906;DHT22;10115;50.906;4.438;2023-12-28T03:38:44;11.00;99.90
19906;DHT22;10115;50.906;4.438;2023-12-28T03:41:20;11.00;99.90
19906;DHT22;10115;50.906;4.438;2023-12-28T03:43:46;11.00;99.90
19906;DHT22;10115;50.906;4.438;2023-12-28T03:46:12;11.00;99.90
19906;DHT22;10115;50.906;4.438;2023-12-28T03:48:38;11.00;99.90
19906;DHT22;10115;50.906;4.438;2023-12-28T03:51:04;11.00;99.90
19906;DHT22;10115;50.906;4.438;2023-12-28T03:53:30;11.00;99.90
19906;DHT22;10115;50.906;4.438;2023-12-28T03:55:59;11.00;99.90
19906;DHT22;10115;50.906;4.438;2023-12-28T03:58:25;11.00;99.90
19906;DHT22;10115;50.906;4.438;2023-12-28T04:00:51;11.10;99.90
19906;DHT22;10115;50.906;4.438;2023-12-28T04:03:17;11.10;99.90
19906;DHT22;10115;50.906;4.438;2023-12-28T04:05:43;11.10;99.90
19906;DHT22;10115;50.906;4.438;2023-12-28T04:08:09;11.10;99.90
19906;DHT22;10115;50.906;4.438;2023-12-28T04:10:35;11.00;99.90
19906;DHT22;10115;50.906;4.438;2023-12-28T04:13:03;11.10;99.90
19906;DHT22;10115;50.906;4.438;2023-12-28T04:15:29;11.00;99.90
19906;DHT22;10115;50.906;4.438;2023-12-28T04:17:54;11.10;99.90
19906;DHT22;10115;50.906;4.438;2023-12-28T04:20:20;11.10;99.90
19906;DHT22;10115;50.906;4.438;2023-12-28T04:22:46;11.00;99.90
19906;DHT22;10115;50.906;4.438;2023-12-28T04:25:12;11.00;99.90
19906;DHT22;10115;50.906;4.438;2023-12-28T04:27:38;11.00;99.90
19906;DHT22;10115;50.906;4.438;2023-12-28T04:30:05;11.10;99.90
19906;DHT22;10115;50.906;4.438;2023-12-28T04:32:34;11.00;99.90
19906;DHT22;10115;50.906;4.438;2023-12-28T04:35:00;11.00;99.90
19906;DHT22;10115;50.906;4.438;2023-12-28T04:37:25;11.00;99.90
19906;DHT22;10115;50.906;4.438;2023-12-28T04:39:52;11.00;99.90
19906;DHT22;10115;50.906;4.438;2023-12-28T04:42:18;11.00;99.90
19906;DHT22;10115;50.906;4.438;2023-12-28T04:44:44;11.00;99.90
19906;DHT22;10115;50.906;4.438;2023-12-28T04:47:10;10.90;99.90
19906;DHT22;10115;50.906;4.438;2023-12-28T04:49:35;10.90;99.90
19906;DHT22;10115;50.906;4.438;2023-12-28T04:52:01;10.90;99.90
19906;DHT22;10115;50.906;4.438;2023-12-28T04:54:27;10.90;99.90
19906;DHT22;10115;50.906;4.438;2023-12-28T04:56:53;10.80;99.90
19906;DHT22;10115;50.906;4.438;2023-12-28T04:59:18;10.80;99.90
19906;DHT22;10115;50.906;4.438;2023-12-28T05:01:44;10.80;99.90
19906;DHT22;10115;50.906;4.438;2023-12-28T05:04:10;10.80;99.90
19906;DHT22;10115;50.906;4.438;2023-12-28T05:06:36;10.80;99.90
19906;DHT22;10115;50.906;4.438;2023-12-28T05:09:03;10.80;99.90
19906;DHT22;10115;50.906;4.438;2023-12-28T05:11:28;10.70;99.90
19906;DHT22;10115;50.906;4.438;2023-12-28T05:13:54;10.70;99.90
19906;DHT22;10115;50.906;4.438;2023-12-28T05:16:20;10.70;99.90
19906;DHT22;10115;50.906;4.438;2023-12-28T05:18:46;10.70;99.90
19906;DHT22;10115;50.906;4.438;2023-12-28T05:21:13;10.70;99.90
19906;DHT22;10115;50.906;4.438;2023-12-28T05:23:39;10.60;99.90
19906;DHT22;10115;50.906;4.438;2023-12-28T05:26:05;10.70;99.90
19906;DHT22;10115;50.906;4.438;2023-12-28T05:28:31;10.70;99.90
19906;DHT22;10115;50.906;4.438;2023-12-28T05:30:57;10.70;99.90
19906;DHT22;10115;50.906;4.438;2023-12-28T05:33:25;10.80;99.90
19906;DHT22;10115;50.906;4.438;2023-12-28T05:35:50;10.80;99.90
19906;DHT22;10115;50.906;4.438;2023-12-28T05:38:16;10.80;99.90
19906;DHT22;10115;50.906;4.438;2023-12-28T05:40:43;10.70;99.90
19906;DHT22;10115;50.906;4.438;2023-12-28T05:43:12;10.70;99.90
19906;DHT22;10115;50.906;4.438;2023-12-28T05:45:38;10.70;99.90
19906;DHT22;10115;50.906;4.438;2023-12-28T05:48:03;10.80;99.90
19906;DHT22;10115;50.906;4.438;2023-12-28T05:50:29;10.70;99.90
19906;DHT22;10115;50.906;4.438;2023-12-28T05:52:55;10.80;99.90
19906;DHT22;10115;50.906;4.438;2023-12-28T05:55:21;10.80;99.90
19906;DHT22;10115;50.906;4.438;2023-12-28T05:57:46;10.80;99.90
19906;DHT22;10115;50.906;4.438;2023-12-28T06:00:13;10.70;99.90
19906;DHT22;10115;50.906;4.438;2023-12-28T06:02:40;10.70;99.90
19906;DHT22;10115;50.906;4.438;2023-12-28T06:05:06;10.60;99.90
19906;DHT22;10115;50.906;4.438;2023-12-28T06:07:31;10.60;99.90
19906;DHT22;10115;50.906;4.438;2023-12-28T06:09:57;10.70;99.90
19906;DHT22;10115;50.906;4.438;2023-12-28T06:12:23;10.70;99.90
19906;DHT22;10115;50.906;4.438;2023-12-28T06:14:48;10.70;99.90
19906;DHT22;10115;50.906;4.438;2023-12-28T06:17:14;10.70;99.90
19906;DHT22;10115;50.906;4.438;2023-12-28T06:19:41;10.70;99.90
19906;DHT22;10115;50.906;4.438;2023-12-28T06:22:07;10.60;99.90
19906;DHT22;10115;50.906;4.438;2023-12-28T06:24:32;10.70;99.90
19906;DHT22;10115;50.906;4.438;2023-12-28T06:26:58;10.60;99.90
19906;DHT22;10115;50.906;4.438;2023-12-28T06:29:24;10.60;99.90
19906;DHT22;10115;50.906;4.438;2023-12-28T06:31:49;10.60;99.90
19906;DHT22;10115;50.906;4.438;2023-12-28T06:34:15;10.60;99.90
19906;DHT22;10115;50.906;4.438;2023-12-28T06:36:40;10.60;99.90
19906;DHT22;10115;50.906;4.438;2023-12-28T06:39:06;10.60;99.90
19906;DHT22;10115;50.906;4.438;2023-12-28T06:41:32;10.60;99.90
19906;DHT22;10115;50.906;4.438;2023-12-28T06:43:57;10.50;99.90
19906;DHT22;10115;50.906;4.438;2023-12-28T06:46:23;10.50;99.90
19906;DHT22;10115;50.906;4.438;2023-12-28T06:48:49;10.50;99.90
19906;DHT22;10115;50.906;4.438;2023-12-28T06:51:19;10.50;99.90
19906;DHT22;10115;50.906;4.438;2023-12-28T06:53:45;10.50;99.90
19906;DHT22;10115;50.906;4.438;2023-12-28T06:56:11;10.40;99.90
19906;DHT22;10115;50.906;4.438;2023-12-28T06:58:36;10.50;99.90
19906;DHT22;10115;50.906;4.438;2023-12-28T07:01:05;10.40;99.90
19906;DHT22;10115;50.906;4.438;2023-12-28T07:03:32;10.50;99.90
19906;DHT22;10115;50.906;4.438;2023-12-28T07:05:58;10.40;99.90
19906;DHT22;10115;50.906;4.438;2023-12-28T07:08:24;10.30;99.90
19906;DHT22;10115;50.906;4.438;2023-12-28T07:10:50;10.30;99.90
19906;DHT22;10115;50.906;4.438;2023-12-28T07:13:16;10.30;99.90
19906;DHT22;10115;50.906;4.438;2023-12-28T07:15:41;10.30;99.90
19906;DHT22;10115;50.906;4.438;2023-12-28T07:18:07;10.30;99.90
19906;DHT22;10115;50.906;4.438;2023-12-28T07:20:33;10.30;99.90
19906;DHT22;10115;50.906;4.438;2023-12-28T07:22:58;10.30;99.90
19906;DHT22;10115;50.906;4.438;2023-12-28T07:25:24;10.30;99.90
19906;DHT22;10115;50.906;4.438;2023-12-28T07:27:49;10.30;99.90
19906;DHT22;10115;50.906;4.438;2023-12-28T07:30:15;10.40;99.90
19906;DHT22;10115;50.906;4.438;2023-12-28T07:32:42;10.30;99.90
19906;DHT22;10115;50.906;4.438;2023-12-28T07:35:08;10.40;99.90
19906;DHT22;10115;50.906;4.438;2023-12-28T07:37:34;10.40;99.90
19906;DHT22;10115;50.906;4.438;2023-12-28T07:40:00;10.40;99.90
19906;DHT22;10115;50.906;4.438;2023-12-28T07:42:26;10.30;99.90
19906;DHT22;10115;50.906;4.438;2023-12-28T07:44:52;10.30;99.90
19906;DHT22;10115;50.906;4.438;2023-12-28T07:47:17;10.40;99.90
19906;DHT22;10115;50.906;4.438;2023-12-28T07:49:43;10.40;99.90
19906;DHT22;10115;50.906;4.438;2023-12-28T07:52:09;10.40;99.90
19906;DHT22;10115;50.906;4.438;2023-12-28T07:54:34;10.40;99.90
19906;DHT22;10115;50.906;4.438;2023-12-28T07:57:00;10.40;99.90
19906;DHT22;10115;50.906;4.438;2023-12-28T07:59:26;10.40;99.90
19906;DHT22;10115;50.906;4.438;2023-12-28T08:01:51;10.40;99.90
19906;DHT22;10115;50.906;4.438;2023-12-28T08:04:17;10.40;99.90
19906;DHT22;10115;50.906;4.438;2023-12-28T08:06:43;10.40;99.90
19906;DHT22;10115;50.906;4.438;2023-12-28T08:09:08;10.40;99.90
19906;DHT22;10115;50.906;4.438;2023-12-28T08:11:34;10.40;99.90
19906;DHT22;10115;50.906;4.438;2023-12-28T08:14:00;10.40;99.90
19906;DHT22;10115;50.906;4.438;2023-12-28T08:16:25;10.40;99.90
19906;DHT22;10115;50.906;4.438;2023-12-28T08:18:51;10.40;99.90
19906;DHT22;10115;50.906;4.438;2023-12-28T08:21:17;10.40;99.90
19906;DHT22;10115;50.906;4.438;2023-12-28T08:23:43;10.40;99.90
19906;DHT22;10115;50.906;4.438;2023-12-28T08:26:09;10.40;99.90
19906;DHT22;10115;50.906;4.438;2023-12-28T08:28:36;10.40;99.90
19906;DHT22;10115;50.906;4.438;2023-12-28T08:31:02;10.50;99.90
19906;DHT22;10115;50.906;4.438;2023-12-28T08:33:27;10.60;99.90
19906;DHT22;10115;50.906;4.438;2023-12-28T08:35:53;10.50;99.90
19906;DHT22;10115;50.906;4.438;2023-12-28T08:38:19;10.60;99.90
19906;DHT22;10115;50.906;4.438;2023-12-28T08:40:45;10.60;99.90
19906;DHT22;10115;50.906;4.438;2023-12-28T08:43:11;10.60;99.90
19906;DHT22;10115;50.906;4.438;2023-12-28T08:45:36;10.70;99.90
19906;DHT22;10115;50.906;4.438;2023-12-28T08:48:03;10.70;99.90
19906;DHT22;10115;50.906;4.438;2023-12-28T08:50:29;10.80;99.90
19906;DHT22;10115;50.906;4.438;2023-12-28T08:52:54;10.80;99.90
19906;DHT22;10115;50.906;4.438;2023-12-28T08:55:21;10.80;99.90
19906;DHT22;10115;50.906;4.438;2023-12-28T08:57:47;10.90;99.90
19906;DHT22;10115;50.906;4.438;2023-12-28T09:00:13;10.80;99.90
19906;DHT22;10115;50.906;4.438;2023-12-28T09:02:43;10.80;99.90
19906;DHT22;10115;50.906;4.438;2023-12-28T09:05:09;10.80;99.90
19906;DHT22;10115;50.906;4.438;2023-12-28T09:07:35;10.80;99.90
19906;DHT22;10115;50.906;4.438;2023-12-28T09:10:04;10.80;99.90
19906;DHT22;10115;50.906;4.438;2023-12-28T09:12:30;10.80;99.90
19906;DHT22;10115;50.906;4.438;2023-12-28T09:14:55;10.70;99.90
19906;DHT22;10115;50.906;4.438;2023-12-28T09:17:21;10.70;99.90
19906;DHT22;10115;50.906;4.438;2023-12-28T09:19:47;10.70;99.90
19906;DHT22;10115;50.906;4.438;2023-12-28T09:22:13;10.70;99.90
19906;DHT22;10115;50.906;4.438;2023-12-28T09:24:38;10.70;99.90
19906;DHT22;10115;50.906;4.438;2023-12-28T09:27:05;10.60;99.90
19906;DHT22;10115;50.906;4.438;2023-12-28T09:29:30;10.70;99.90
19906;DHT22;10115;50.906;4.438;2023-12-28T09:31:56;10.60;99.90
19906;DHT22;10115;50.906;4.438;2023-12-28T09:34:22;10.70;99.90
19906;DHT22;10115;50.906;4.438;2023-12-28T09:36:47;10.70;99.90
19906;DHT22;10115;50.906;4.438;2023-12-28T09:39:13;10.80;99.90
19906;DHT22;10115;50.906;4.438;2023-12-28T09:41:41;10.80;99.90
19906;DHT22;10115;50.906;4.438;2023-12-28T09:44:12;10.80;99.90
19906;DHT22;10115;50.906;4.438;2023-12-28T09:46:41;11.00;99.90
19906;DHT22;10115;50.906;4.438;2023-12-28T09:49:08;11.10;99.90
19906;DHT22;10115;50.906;4.438;2023-12-28T09:51:34;11.10;99.90
19906;DHT22;10115;50.906;4.438;2023-12-28T09:53:59;11.00;99.90
19906;DHT22;10115;50.906;4.438;2023-12-28T09:56:25;11.00;99.90
19906;DHT22;10115;50.906;4.438;2023-12-28T09:58:51;11.00;99.90
19906;DHT22;10115;50.906;4.438;2023-12-28T10:01:18;11.00;99.90
19906;DHT22;10115;50.906;4.438;2023-12-28T10:03:45;11.00;99.90
19906;DHT22;10115;50.906;4.438;2023-12-28T10:06:10;11.00;99.90
19906;DHT22;10115;50.906;4.438;2023-12-28T10:08:36;11.10;99.90
19906;DHT22;10115;50.906;4.438;2023-12-28T10:11:02;11.00;99.90
19906;DHT22;10115;50.906;4.438;2023-12-28T10:13:28;11.10;99.90
19906;DHT22;10115;50.906;4.438;2023-12-28T10:15:59;11.00;99.90
19906;DHT22;10115;50.906;4.438;2023-12-28T10:18:24;11.00;99.90
19906;DHT22;10115;50.906;4.438;2023-12-28T10:20:54;11.00;99.90
19906;DHT22;10115;50.906;4.438;2023-12-28T10:23:20;11.00;99.90
19906;DHT22;10115;50.906;4.438;2023-12-28T10:25:46;11.10;99.90
19906;DHT22;10115;50.906;4.438;2023-12-28T10:28:13;11.00;99.90
19906;DHT22;10115;50.906;4.438;2023-12-28T10:30:40;11.10;99.90
19906;DHT22;10115;50.906;4.438;2023-12-28T10:33:06;11.10;99.90
19906;DHT22;10115;50.906;4.438;2023-12-28T10:35:32;11.10;99.90
19906;DHT22;10115;50.906;4.438;2023-12-28T10:38:00;11.20;99.90
19906;DHT22;10115;50.906;4.438;2023-12-28T10:40:28;11.20;99.90
19906;DHT22;10115;50.906;4.438;2023-12-28T10:43:09;11.20;99.90
19906;DHT22;10115;50.906;4.438;2023-12-28T10:45:39;11.20;99.90
19906;DHT22;10115;50.906;4.438;2023-12-28T10:48:06;11.20;99.90
19906;DHT22;10115;50.906;4.438;2023-12-28T10:50:39;11.20;99.90
19906;DHT22;10115;50.906;4.438;2023-12-28T10:53:38;11.30;99.90
19906;DHT22;10115;50.906;4.438;2023-12-28T10:56:20;11.30;99.90
19906;DHT22;10115;50.906;4.438;2023-12-28T11:01:47;11.30;99.90
19906;DHT22;10115;50.906;4.438;2023-12-28T11:04:23;11.40;99.90
19906;DHT22;10115;50.906;4.438;2023-12-28T11:06:52;11.40;99.90
19906;DHT22;10115;50.906;4.438;2023-12-28T11:09:20;11.50;99.90
19906;DHT22;10115;50.906;4.438;2023-12-28T11:11:47;11.50;99.90
19906;DHT22;10115;50.906;4.438;2023-12-28T11:14:17;11.50;99.90
19906;DHT22;10115;50.906;4.438;2023-12-28T11:16:43;11.40;99.90
19906;DHT22;10115;50.906;4.438;2023-12-28T11:19:10;11.40;99.90
19906;DHT22;10115;50.906;4.438;2023-12-28T11:21:37;11.40;99.90
19906;DHT22;10115;50.906;4.438;2023-12-28T11:24:04;11.40;99.90
19906;DHT22;10115;50.906;4.438;2023-12-28T11:26:31;11.40;99.90
19906;DHT22;10115;50.906;4.438;2023-12-28T11:29:05;11.50;99.90
19906;DHT22;10115;50.906;4.438;2023-12-28T11:31:35;11.50;99.90
19906;DHT22;10115;50.906;4.438;2023-12-28T11:34:03;11.50;99.90
19906;DHT22;10115;50.906;4.438;2023-12-28T11:36:38;11.50;99.90
19906;DHT22;10115;50.906;4.438;2023-12-28T11:39:06;11.50;99.90
19906;DHT22;10115;50.906;4.438;2023-12-28T11:41:33;11.50;99.90
19906;DHT22;10115;50.906;4.438;2023-12-28T11:44:05;11.50;99.90
19906;DHT22;10115;50.906;4.438;2023-12-28T11:46:31;11.60;99.90
19906;DHT22;10115;50.906;4.438;2023-12-28T11:49:08;11.60;99.90
19906;DHT22;10115;50.906;4.438;2023-12-28T11:51:39;11.70;99.90
19906;DHT22;10115;50.906;4.438;2023-12-28T11:54:05;11.70;99.90
19906;DHT22;10115;50.906;4.438;2023-12-28T11:56:31;11.70;99.90
19906;DHT22;10115;50.906;4.438;2023-12-28T11:58:57;11.70;99.90
19906;DHT22;10115;50.906;4.438;2023-12-28T12:01:24;11.70;99.90
19906;DHT22;10115;50.906;4.438;2023-12-28T12:03:49;11.70;99.90
19906;DHT22;10115;50.906;4.438;2023-12-28T12:06:15;11.70;99.90
19906;DHT22;10115;50.906;4.438;2023-12-28T12:08:47;11.70;99.90
19906;DHT22;10115;50.906;4.438;2023-12-28T12:11:16;11.70;99.90
19906;DHT22;10115;50.906;4.438;2023-12-28T12:13:43;11.80;99.90
19906;DHT22;10115;50.906;4.438;2023-12-28T12:16:09;11.80;99.90
19906;DHT22;10115;50.906;4.438;2023-12-28T12:18:35;11.90;99.90
19906;DHT22;10115;50.906;4.438;2023-12-28T12:21:02;11.80;99.90
19906;DHT22;10115;50.906;4.438;2023-12-28T12:23:28;11.80;99.90
19906;DHT22;10115;50.906;4.438;2023-12-28T12:25:53;11.80;99.90
19906;DHT22;10115;50.906;4.438;2023-12-28T12:28:19;11.90;99.90
19906;DHT22;10115;50.906;4.438;2023-12-28T12:30:55;11.80;99.90
19906;DHT22;10115;50.906;4.438;2023-12-28T12:33:24;11.90;99.90
19906;DHT22;10115;50.906;4.438;2023-12-28T12:35:51;12.00;99.90
19906;DHT22;10115;50.906;4.438;2023-12-28T12:38:17;12.00;99.90
19906;DHT22;10115;50.906;4.438;2023-12-28T12:40:43;12.00;99.90
19906;DHT22;10115;50.906;4.438;2023-12-28T12:43:08;11.90;99.90
19906;DHT22;10115;50.906;4.438;2023-12-28T12:45:35;11.90;99.90
19906;DHT22;10115;50.906;4.438;2023-12-28T12:48:02;11.80;99.90
19906;DHT22;10115;50.906;4.438;2023-12-28T12:50:31;11.80;99.90
19906;DHT22;10115;50.906;4.438;2023-12-28T12:52:59;11.80;99.90
19906;DHT22;10115;50.906;4.438;2023-12-28T12:55:25;11.80;99.90
19906;DHT22;10115;50.906;4.438;2023-12-28T12:57:51;11.70;99.90
19906;DHT22;10115;50.906;4.438;2023-12-28T13:00:21;11.80;99.90
19906;DHT22;10115;50.906;4.438;2023-12-28T13:02:47;11.70;99.90
19906;DHT22;10115;50.906;4.438;2023-12-28T13:05:12;11.80;99.90
19906;DHT22;10115;50.906;4.438;2023-12-28T13:07:38;11.70;99.90
19906;DHT22;10115;50.906;4.438;2023-12-28T13:10:04;11.70;99.90
19906;DHT22;10115;50.906;4.438;2023-12-28T13:12:31;11.70;99.90
19906;DHT22;10115;50.906;4.438;2023-12-28T13:14:56;11.70;99.10
19906;DHT22;10115;50.906;4.438;2023-12-28T13:17:22;11.70;88.60
19906;DHT22;10115;50.906;4.438;2023-12-28T13:19:48;11.70;99.90
19906;DHT22;10115;50.906;4.438;2023-12-28T13:22:13;11.80;22.50
19906;DHT22;10115;50.906;4.438;2023-12-28T13:24:39;11.80;24.40
19906;DHT22;10115;50.906;4.438;2023-12-28T13:27:04;11.70;1.00
19906;DHT22;10115;50.906;4.438;2023-12-28T13:29:30;11.70;1.00
19906;DHT22;10115;50.906;4.438;2023-12-28T13:31:56;11.70;1.00
19906;DHT22;10115;50.906;4.438;2023-12-28T13:34:21;11.80;1.00
19906;DHT22;10115;50.906;4.438;2023-12-28T13:36:48;11.70;1.00
19906;DHT22;10115;50.906;4.438;2023-12-28T13:39:14;11.80;1.00
19906;DHT22;10115;50.906;4.438;2023-12-28T13:41:43;11.70;1.00
19906;DHT22;10115;50.906;4.438;2023-12-28T13:44:08;11.70;1.00
19906;DHT22;10115;50.906;4.438;2023-12-28T13:46:38;11.80;1.00
19906;DHT22;10115;50.906;4.438;2023-12-28T13:49:04;11.70;1.00
19906;DHT22;10115;50.906;4.438;2023-12-28T13:51:31;11.70;1.00
19906;DHT22;10115;50.906;4.438;2023-12-28T13:53:57;11.70;1.00
19906;DHT22;10115;50.906;4.438;2023-12-28T13:56:23;11.70;1.00
19906;DHT22;10115;50.906;4.438;2023-12-28T13:58:48;11.70;1.00
19906;DHT22;10115;50.906;4.438;2023-12-28T14:01:14;11.70;1.00
19906;DHT22;10115;50.906;4.438;2023-12-28T14:03:40;11.70;1.00
19906;DHT22;10115;50.906;4.438;2023-12-28T14:06:06;11.70;1.00
19906;DHT22;10115;50.906;4.438;2023-12-28T14:08:32;11.60;1.00
19906;DHT22;10115;50.906;4.438;2023-12-28T14:10:57;11.70;1.00
19906;DHT22;10115;50.906;4.438;2023-12-28T14:13:23;11.70;1.00
19906;DHT22;10115;50.906;4.438;2023-12-28T14:15:49;11.70;1.00
19906;DHT22;10115;50.906;4.438;2023-12-28T14:18:14;11.60;1.00
19906;DHT22;10115;50.906;4.438;2023-12-28T14:20:40;11.70;1.00
19906;DHT22;10115;50.906;4.438;2023-12-28T14:23:06;11.70;1.00
19906;DHT22;10115;50.906;4.438;2023-12-28T14:25:32;11.60;1.00
19906;DHT22;10115;50.906;4.438;2023-12-28T14:27:58;11.60;1.00
19906;DHT22;10115;50.906;4.438;2023-12-28T14:30:24;11.60;1.00
19906;DHT22;10115;50.906;4.438;2023-12-28T14:32:50;11.60;1.00
19906;DHT22;10115;50.906;4.438;2023-12-28T14:35:16;11.60;1.00
19906;DHT22;10115;50.906;4.438;2023-12-28T14:37:44;11.60;1.00
19906;DHT22;10115;50.906;4.438;2023-12-28T14:40:10;11.60;1.00
19906;DHT22;10115;50.906;4.438;2023-12-28T14:42:37;11.60;1.00
19906;DHT22;10115;50.906;4.438;2023-12-28T14:45:03;11.60;1.00
19906;DHT22;10115;50.906;4.438;2023-12-28T14:47:29;11.60;1.00
19906;DHT22;10115;50.906;4.438;2023-12-28T14:49:55;11.50;1.00
19906;DHT22;10115;50.906;4.438;2023-12-28T14:52:22;11.50;17.60
19906;DHT22;10115;50.906;4.438;2023-12-28T14:54:47;11.50;25.10
19906;DHT22;10115;50.906;4.438;2023-12-28T14:57:16;11.50;49.50
19906;DHT22;10115;50.906;4.438;2023-12-28T14:59:42;11.50;49.20
19906;DHT22;10115;50.906;4.438;2023-12-28T15:02:07;11.50;37.00
19906;DHT22;10115;50.906;4.438;2023-12-28T15:04:33;11.50;27.10
19906;DHT22;10115;50.906;4.438;2023-12-28T15:06:59;11.50;46.40
19906;DHT22;10115;50.906;4.438;2023-12-28T15:09:25;11.50;77.60
19906;DHT22;10115;50.906;4.438;2023-12-28T15:11:51;11.40;92.80
19906;DHT22;10115;50.906;4.438;2023-12-28T15:14:17;11.40;99.90
19906;DHT22;10115;50.906;4.438;2023-12-28T15:16:43;11.40;99.90
19906;DHT22;10115;50.906;4.438;2023-12-28T15:19:09;11.40;99.90
19906;DHT22;10115;50.906;4.438;2023-12-28T15:21:36;11.40;99.90
19906;DHT22;10115;50.906;4.438;2023-12-28T15:24:02;11.30;99.90
19906;DHT22;10115;50.906;4.438;2023-12-28T15:26:29;11.40;99.90
19906;DHT22;10115;50.906;4.438;2023-12-28T15:28:54;11.30;99.90
19906;DHT22;10115;50.906;4.438;2023-12-28T15:31:20;11.40;99.90
19906;DHT22;10115;50.906;4.438;2023-12-28T15:33:46;11.30;99.90